createdAt,value
2023-02-08T00:01:19.702Z,96834.00
2023-02-08T00:02:19.735Z,96828.00
2023-02-08T00:03:19.683Z,96830.00
2023-02-08T00:04:19.666Z,96830.00
2023-02-08T00:05:19.658Z,96830.00
2023-02-08T00:55:32.370Z,96826.00
2023-02-08T00:56:33.335Z,96822.00
2023-02-08T00:57:33.337Z,96826.00
2023-02-08T00:58:33.313Z,96824.00
2023-02-08T00:59:33.306Z,96824.00
2023-02-08T01:00:33.393Z,96826.00
2023-02-08T01:01:33.394Z,96828.00
2023-02-08T01:02:33.290Z,96828.00
2023-02-08T01:03:33.267Z,96828.00
2023-02-08T01:04:33.263Z,96826.00
2023-02-08T01:05:33.257Z,96830.00
2023-02-08T01:06:33.246Z,96830.00
2023-02-08T01:07:33.248Z,96830.00
2023-02-08T01:08:33.225Z,96830.00
2023-02-08T01:09:33.216Z,96834.00
2023-02-08T01:10:33.209Z,96832.00
2023-02-08T01:11:33.223Z,96832.00
2023-02-08T01:12:33.195Z,96834.00
2023-02-08T01:13:33.181Z,96834.00
2023-02-08T01:14:33.173Z,96834.00
2023-02-08T01:15:33.168Z,96836.00
2023-02-08T01:16:33.210Z,96836.00
2023-02-08T01:17:33.146Z,96838.00
2023-02-08T01:18:33.140Z,96840.00
2023-02-08T01:19:33.129Z,96842.00
2023-02-08T01:20:33.126Z,96842.00
2023-02-08T01:21:33.113Z,96844.00
2023-02-08T01:22:33.101Z,96842.00
2023-02-08T01:23:33.093Z,96844.00
2023-02-08T01:24:33.089Z,96846.00
2023-02-08T01:25:33.080Z,96842.00
2023-02-08T01:26:33.070Z,96842.00
2023-02-08T01:27:33.084Z,96844.00
2023-02-08T01:28:33.050Z,96846.00
2023-02-08T01:29:33.041Z,96842.00
2023-02-08T01:30:33.055Z,96844.00
2023-02-08T01:31:33.063Z,96844.00
2023-02-08T01:32:33.021Z,96842.00
2023-02-08T01:33:33.014Z,96844.00
2023-02-08T01:34:33.003Z,96844.00
2023-02-08T01:35:32.992Z,96844.00
2023-02-08T01:36:32.981Z,96842.00
2023-02-08T01:37:32.975Z,96844.00
2023-02-08T01:38:32.967Z,96844.00
2023-02-08T01:39:32.953Z,96846.00
2023-02-08T01:40:32.945Z,96840.00
2023-02-08T01:41:32.937Z,96838.00
2023-02-08T01:42:32.936Z,96838.00
2023-02-08T01:43:32.945Z,96840.00
2023-02-08T01:44:32.910Z,96846.00
2023-02-08T01:45:32.917Z,96846.00
2023-02-08T01:46:32.901Z,96846.00
2023-02-08T01:47:32.885Z,96848.00
2023-02-08T01:48:32.887Z,96848.00
2023-02-08T01:49:32.866Z,96846.00
2023-02-08T01:50:32.864Z,96848.00
2023-02-08T01:51:32.853Z,96850.00
2023-02-08T01:52:32.838Z,96848.00
2023-02-08T01:53:32.831Z,96848.00
2023-02-08T01:54:32.822Z,96846.00
2023-02-08T01:55:32.815Z,96848.00
2023-02-08T01:56:32.803Z,96848.00
2023-02-08T01:57:32.802Z,96846.00
2023-02-08T01:58:32.795Z,96846.00
2023-02-08T01:59:32.801Z,96848.00
2023-02-08T02:00:32.770Z,96844.00
2023-02-08T02:01:32.762Z,96838.00
2023-02-08T02:02:32.750Z,96840.00
2023-02-08T02:03:32.746Z,96840.00
2023-02-08T02:04:32.741Z,96838.00
2023-02-08T02:05:32.724Z,96840.00
2023-02-08T02:06:32.716Z,96836.00
2023-02-08T02:07:32.705Z,96836.00
2023-02-08T02:08:32.707Z,96836.00
2023-02-08T02:09:32.691Z,96838.00
2023-02-08T02:10:32.683Z,96836.00
2023-02-08T02:11:32.676Z,96842.00
2023-02-08T02:12:32.665Z,96836.00
2023-02-08T02:13:32.664Z,96840.00
2023-02-08T02:14:32.655Z,96836.00
2023-02-08T02:15:32.704Z,96832.00
2023-02-08T02:16:32.707Z,96832.00
2023-02-08T02:17:32.623Z,96832.00
2023-02-08T02:18:32.643Z,96832.00
2023-02-08T02:19:32.611Z,96834.00
2023-02-08T02:20:32.601Z,96836.00
2023-02-08T02:21:32.590Z,96836.00
2023-02-08T02:22:32.626Z,96830.00
2023-02-08T02:23:32.567Z,96830.00
2023-02-08T02:24:32.569Z,96828.00
2023-02-08T02:25:32.555Z,96830.00
2023-02-08T02:26:32.539Z,96828.00
2023-02-08T02:27:32.533Z,96828.00
2023-02-08T02:28:32.532Z,96834.00
2023-02-08T02:29:32.521Z,96836.00
2023-02-08T02:30:32.523Z,96828.00
2023-02-08T02:31:32.585Z,96826.00
2023-02-08T02:32:32.489Z,96824.00
2023-02-08T02:33:32.480Z,96824.00
2023-02-08T02:34:32.475Z,96826.00
2023-02-08T02:35:32.463Z,96824.00
2023-02-08T02:36:32.459Z,96824.00
2023-02-08T02:37:32.449Z,96822.00
2023-02-08T02:38:32.441Z,96822.00
2023-02-08T02:39:32.427Z,96822.00
2023-02-08T02:40:32.422Z,96822.00
2023-02-08T02:41:32.411Z,96822.00
2023-02-08T02:42:32.401Z,96822.00
2023-02-08T02:43:32.391Z,96826.00
2023-02-08T02:44:32.386Z,96822.00
2023-02-08T02:45:32.429Z,96826.00
2023-02-08T02:46:32.366Z,96820.00
2023-02-08T02:47:32.383Z,96820.00
2023-02-08T02:48:32.356Z,96818.00
2023-02-08T02:49:32.344Z,96816.00
2023-02-08T02:50:32.340Z,96816.00
2023-02-08T02:51:32.325Z,96818.00
2023-02-08T02:52:32.321Z,96818.00
2023-02-08T02:53:32.322Z,96818.00
2023-02-08T02:54:32.307Z,96814.00
2023-02-08T02:55:32.293Z,96816.00
2023-02-08T02:56:32.287Z,96814.00
2023-02-08T02:57:32.273Z,96818.00
2023-02-08T02:58:32.272Z,96818.00
2023-02-08T02:59:32.258Z,96814.00
2023-02-08T03:00:32.250Z,96814.00
2023-02-08T03:01:32.355Z,96816.00
2023-02-08T03:02:32.230Z,96818.00
2023-02-08T03:03:32.248Z,96820.00
2023-02-08T03:04:32.257Z,96820.00
2023-02-08T03:05:32.205Z,96818.00
2023-02-08T03:06:32.194Z,96818.00
2023-02-08T03:07:32.189Z,96818.00
2023-02-08T03:08:32.180Z,96818.00
2023-02-08T03:09:32.170Z,96818.00
2023-02-08T03:10:32.162Z,96818.00
2023-02-08T03:11:32.154Z,96816.00
2023-02-08T03:12:32.154Z,96814.00
2023-02-08T03:13:32.137Z,96812.00
2023-02-08T03:14:32.131Z,96814.00
2023-02-08T03:15:32.119Z,96814.00
2023-02-08T03:16:32.128Z,96814.00
2023-02-08T03:17:32.108Z,96820.00
2023-02-08T03:18:32.093Z,96818.00
2023-02-08T03:19:32.111Z,96818.00
2023-02-08T03:20:32.073Z,96818.00
2023-02-08T03:21:32.067Z,96820.00
2023-02-08T03:22:32.061Z,96822.00
2023-02-08T03:23:32.048Z,96822.00
2023-02-08T03:24:32.040Z,96824.00
2023-02-08T03:25:32.034Z,96818.00
2023-02-08T03:26:32.024Z,96820.00
2023-02-08T03:27:32.014Z,96820.00
2023-02-08T03:28:32.005Z,96818.00
2023-02-08T03:29:32.001Z,96824.00
2023-02-08T03:30:31.989Z,96824.00
2023-02-08T03:31:32.124Z,96824.00
2023-02-08T03:32:31.968Z,96824.00
2023-02-08T03:33:31.962Z,96820.00
2023-02-08T03:34:31.952Z,96830.00
2023-02-08T03:35:31.971Z,96828.00
2023-02-08T03:36:31.938Z,96826.00
2023-02-08T03:37:31.933Z,96828.00
2023-02-08T03:38:31.917Z,96830.00
2023-02-08T03:39:31.913Z,96830.00
2023-02-08T03:40:31.935Z,96830.00
2023-02-08T03:41:31.931Z,96834.00
2023-02-08T03:42:31.885Z,96834.00
2023-02-08T03:43:31.875Z,96834.00
2023-02-08T03:44:31.865Z,96836.00
2023-02-08T03:45:31.874Z,96836.00
2023-02-08T03:46:31.851Z,96836.00
2023-02-08T03:47:31.839Z,96830.00
2023-02-08T03:48:31.830Z,96830.00
2023-02-08T03:49:31.821Z,96834.00
2023-02-08T03:50:31.818Z,96832.00
2023-02-08T03:51:31.828Z,96830.00
2023-02-08T03:52:31.796Z,96832.00
2023-02-08T03:53:31.789Z,96832.00
2023-02-08T03:54:31.777Z,96832.00
2023-02-08T03:55:31.777Z,96832.00
2023-02-08T03:56:31.767Z,96830.00
2023-02-08T03:57:31.762Z,96830.00
2023-02-08T03:58:31.739Z,96830.00
2023-02-08T03:59:31.733Z,96826.00
2023-02-08T04:00:31.723Z,96828.00
2023-02-08T04:01:31.717Z,96830.00
2023-02-08T04:02:31.726Z,96824.00
2023-02-08T04:03:31.697Z,96824.00
2023-02-08T04:04:31.686Z,96830.00
2023-02-08T04:05:31.677Z,96830.00
2023-02-08T04:06:31.666Z,96830.00
2023-02-08T04:07:31.688Z,96830.00
2023-02-08T04:08:31.649Z,96830.00
2023-02-08T04:09:31.649Z,96832.00
2023-02-08T04:10:31.659Z,96828.00
2023-02-08T04:11:31.627Z,96828.00
2023-02-08T04:12:31.614Z,96828.00
2023-02-08T04:13:31.615Z,96826.00
2023-02-08T04:14:31.598Z,96826.00
2023-02-08T04:15:31.653Z,96826.00
2023-02-08T04:16:31.587Z,96826.00
2023-02-08T04:17:31.571Z,96826.00
2023-02-08T04:18:31.568Z,96824.00
2023-02-08T04:19:31.554Z,96824.00
2023-02-08T04:20:31.545Z,96824.00
2023-02-08T04:21:31.539Z,96824.00
2023-02-08T04:22:31.530Z,96824.00
2023-02-08T04:23:31.546Z,96822.00
2023-02-08T04:24:31.511Z,96826.00
2023-02-08T04:25:31.509Z,96828.00
2023-02-08T04:26:31.498Z,96824.00
2023-02-08T04:27:31.493Z,96824.00
2023-02-08T04:28:31.474Z,96824.00
2023-02-08T04:29:31.471Z,96828.00
2023-02-08T04:30:31.495Z,96826.00
2023-02-08T04:31:31.547Z,96826.00
2023-02-08T04:32:31.447Z,96826.00
2023-02-08T04:33:31.440Z,96828.00
2023-02-08T04:34:31.429Z,96824.00
2023-02-08T04:35:31.415Z,96826.00
2023-02-08T04:36:31.409Z,96830.00
2023-02-08T04:37:31.401Z,96828.00
2023-02-08T04:38:31.398Z,96830.00
2023-02-08T04:39:31.404Z,96828.00
2023-02-08T04:40:31.371Z,96828.00
2023-02-08T04:41:31.367Z,96828.00
2023-02-08T04:42:31.356Z,96830.00
2023-02-08T04:43:31.349Z,96830.00
2023-02-08T04:44:31.340Z,96828.00
2023-02-08T04:45:31.338Z,96830.00
2023-02-08T04:46:31.358Z,96832.00
2023-02-08T04:47:31.312Z,96830.00
2023-02-08T04:48:31.307Z,96828.00
2023-02-08T04:49:31.301Z,96824.00
2023-02-08T04:50:31.303Z,96824.00
2023-02-08T04:51:31.281Z,96818.00
2023-02-08T04:52:31.298Z,96820.00
2023-02-08T04:53:31.266Z,96818.00
2023-02-08T04:54:31.266Z,96816.00
2023-02-08T04:55:31.269Z,96818.00
2023-02-08T04:56:31.242Z,96816.00
2023-02-08T04:57:31.226Z,96818.00
2023-02-08T04:58:31.224Z,96818.00
2023-02-08T04:59:31.209Z,96816.00
2023-02-08T05:00:31.212Z,96816.00
2023-02-08T05:01:31.233Z,96816.00
2023-02-08T05:02:31.190Z,96814.00
2023-02-08T05:03:31.172Z,96810.00
2023-02-08T05:04:31.165Z,96808.00
2023-02-08T05:05:31.157Z,96808.00
2023-02-08T05:06:31.158Z,96812.00
2023-02-08T05:07:31.138Z,96810.00
2023-02-08T05:08:31.130Z,96806.00
2023-02-08T05:09:31.125Z,96806.00
2023-02-08T05:10:31.109Z,96805.00
2023-02-08T05:11:31.126Z,96805.00
2023-02-08T05:12:31.099Z,96808.00
2023-02-08T05:13:31.096Z,96808.00
2023-02-08T05:14:31.079Z,96806.00
2023-02-08T05:15:31.066Z,96806.00
2023-02-08T05:16:31.063Z,96808.00
2023-02-08T05:17:31.045Z,96806.00
2023-02-08T05:18:31.038Z,96806.00
2023-02-08T05:19:31.029Z,96806.00
2023-02-08T05:20:31.077Z,96805.00
2023-02-08T05:21:31.016Z,96803.00
2023-02-08T05:22:31.004Z,96803.00
2023-02-08T05:23:30.994Z,96803.00
2023-02-08T05:24:30.985Z,96801.00
2023-02-08T05:25:30.977Z,96801.00
2023-02-08T05:26:30.969Z,96797.00
2023-02-08T05:27:30.986Z,96797.00
2023-02-08T05:28:30.954Z,96795.00
2023-02-08T05:29:30.943Z,96795.00
2023-02-08T05:30:30.941Z,96793.00
2023-02-08T05:31:31.039Z,96793.00
2023-02-08T05:32:30.916Z,96795.00
2023-02-08T05:33:30.911Z,96793.00
2023-02-08T05:34:30.901Z,96795.00
2023-02-08T05:35:30.891Z,96795.00
2023-02-08T05:36:30.879Z,96793.00
2023-02-08T05:37:30.873Z,96793.00
2023-02-08T05:38:30.869Z,96793.00
2023-02-08T05:39:30.852Z,96791.00
2023-02-08T05:40:30.841Z,96791.00
2023-02-08T05:41:30.838Z,96791.00
2023-02-08T05:42:30.865Z,96789.00
2023-02-08T05:43:30.848Z,96789.00
2023-02-08T05:44:30.815Z,96787.00
2023-02-08T05:45:30.801Z,96787.00
2023-02-08T05:46:30.862Z,96785.00
2023-02-08T05:47:30.797Z,96787.00
2023-02-08T05:48:30.775Z,96789.00
2023-02-08T05:49:30.764Z,96789.00
2023-02-08T05:50:30.755Z,96793.00
2023-02-08T05:51:30.753Z,96793.00
2023-02-08T05:52:30.734Z,96795.00
2023-02-08T05:53:30.728Z,96793.00
2023-02-08T05:54:30.717Z,96793.00
2023-02-08T05:55:30.709Z,96793.00
2023-02-08T05:56:30.708Z,96795.00
2023-02-08T05:57:31.931Z,96797.00
2023-02-08T05:58:30.687Z,96799.00
2023-02-08T05:59:30.699Z,96801.00
2023-02-08T06:00:30.664Z,96805.00
2023-02-08T06:01:30.660Z,96806.00
2023-02-08T06:02:30.652Z,96806.00
2023-02-08T06:03:30.640Z,96808.00
2023-02-08T06:04:30.634Z,96805.00
2023-02-08T06:05:30.624Z,96806.00
2023-02-08T06:06:30.616Z,96806.00
2023-02-08T06:07:30.603Z,96806.00
2023-02-08T06:08:30.631Z,96808.00
2023-02-08T06:09:30.591Z,96808.00
2023-02-08T06:10:30.576Z,96812.00
2023-02-08T06:11:30.568Z,96814.00
2023-02-08T06:12:30.576Z,96812.00
2023-02-08T06:13:30.553Z,96810.00
2023-02-08T06:14:30.547Z,96810.00
2023-02-08T06:15:30.563Z,96808.00
2023-02-08T06:16:30.578Z,96806.00
2023-02-08T06:17:30.982Z,96808.00
2023-02-08T06:18:30.515Z,96810.00
2023-02-08T06:19:30.526Z,96812.00
2023-02-08T06:20:30.495Z,96810.00
2023-02-08T06:21:30.493Z,96810.00
2023-02-08T06:22:30.489Z,96812.00
2023-02-08T06:23:30.475Z,96810.00
2023-02-08T06:24:30.456Z,96810.00
2023-02-08T06:25:30.447Z,96814.00
2023-02-08T06:26:30.438Z,96816.00
2023-02-08T06:27:30.427Z,96816.00
2023-02-08T06:28:30.503Z,96818.00
2023-02-08T06:29:30.510Z,96818.00
2023-02-08T06:30:30.406Z,96820.00
2023-02-08T06:31:30.459Z,96818.00
2023-02-08T06:32:30.532Z,96820.00
2023-02-08T06:33:30.379Z,96824.00
2023-02-08T06:34:30.372Z,96822.00
2023-02-08T06:35:30.357Z,96820.00
2023-02-08T06:36:30.360Z,96826.00
2023-02-08T06:37:30.347Z,96824.00
2023-02-08T06:38:30.357Z,96828.00
2023-02-08T06:39:30.351Z,96832.00
2023-02-08T06:40:30.326Z,96826.00
2023-02-08T06:41:30.501Z,96826.00
2023-02-08T06:42:30.303Z,96826.00
2023-02-08T06:43:30.292Z,96826.00
2023-02-08T06:44:30.292Z,96824.00
2023-02-08T06:45:30.329Z,96822.00
2023-02-08T06:46:30.508Z,96824.00
2023-02-08T06:47:30.283Z,96822.00
2023-02-08T06:48:30.254Z,96822.00
2023-02-08T06:49:30.240Z,96818.00
2023-02-08T06:50:30.512Z,96818.00
2023-02-08T06:51:30.253Z,96816.00
2023-02-08T06:52:30.509Z,96816.00
2023-02-08T06:53:30.240Z,96820.00
2023-02-08T06:54:30.201Z,96818.00
2023-02-08T06:55:30.191Z,96816.00
2023-02-08T06:56:30.178Z,96818.00
2023-02-08T06:57:30.503Z,96818.00
2023-02-08T06:58:30.162Z,96816.00
2023-02-08T06:59:30.149Z,96816.00
2023-02-08T07:00:30.148Z,96816.00
2023-02-08T07:01:30.224Z,96814.00
2023-02-08T07:02:30.550Z,96812.00
2023-02-08T07:04:30.530Z,96814.00
2023-02-08T07:05:30.102Z,96814.00
2023-02-08T07:06:30.091Z,96816.00
2023-02-08T07:07:30.104Z,96818.00
2023-02-08T07:08:30.508Z,96814.00
2023-02-08T07:09:30.536Z,96818.00
2023-02-08T07:10:30.117Z,96818.00
2023-02-08T07:12:30.034Z,96820.00
2023-02-08T07:13:30.070Z,96820.00
2023-02-08T07:14:30.529Z,96826.00
2023-02-08T07:15:30.013Z,96822.00
2023-02-08T07:16:30.045Z,96826.00
2023-02-08T07:17:29.994Z,96828.00
2023-02-08T07:18:29.985Z,96830.00
2023-02-08T07:19:30.038Z,96826.00
2023-02-08T07:20:30.005Z,96828.00
2023-02-08T07:21:29.955Z,96828.00
2023-02-08T07:22:29.954Z,96822.00
2023-02-08T07:23:29.978Z,96826.00
2023-02-08T07:24:29.968Z,96820.00
2023-02-08T07:26:29.915Z,96818.00
2023-02-08T07:27:29.922Z,96818.00
2023-02-08T07:28:29.920Z,96820.00
2023-02-08T07:29:30.019Z,96818.00
2023-02-08T07:30:29.952Z,96818.00
2023-02-08T07:31:29.896Z,96820.00
2023-02-08T07:32:29.871Z,96818.00
2023-02-08T07:33:29.856Z,96816.00
2023-02-08T07:34:29.848Z,96816.00
2023-02-08T07:35:29.969Z,96816.00
2023-02-08T07:36:29.829Z,96814.00
2023-02-08T07:37:29.846Z,96814.00
2023-02-08T07:38:29.809Z,96816.00
2023-02-08T07:39:30.024Z,96816.00
2023-02-08T07:40:29.791Z,96814.00
2023-02-08T07:41:30.022Z,96814.00
2023-02-08T07:42:29.772Z,96816.00
2023-02-08T07:43:29.770Z,96816.00
2023-02-08T07:44:29.764Z,96812.00
2023-02-08T07:45:30.029Z,96816.00
2023-02-08T07:46:29.740Z,96814.00
2023-02-08T07:47:30.065Z,96810.00
2023-02-08T07:48:29.756Z,96810.00
2023-02-08T07:49:29.747Z,96812.00
2023-02-08T07:51:29.754Z,96814.00
2023-02-08T07:52:29.719Z,96814.00
2023-02-08T07:53:29.705Z,96814.00
2023-02-08T07:54:29.697Z,96808.00
2023-02-08T07:55:30.049Z,96806.00
2023-02-08T07:56:29.680Z,96803.00
2023-02-08T07:57:29.678Z,96805.00
2023-02-08T07:58:29.667Z,96808.00
2023-02-08T07:59:29.662Z,96806.00
2023-02-08T08:00:30.071Z,96803.00
2023-02-08T08:01:29.099Z,96803.00
2023-02-08T08:02:30.061Z,96805.00
2023-02-08T08:03:29.613Z,96803.00
2023-02-08T08:04:29.634Z,96801.00
2023-02-08T08:05:29.620Z,96801.00
2023-02-08T08:06:29.594Z,96797.00
2023-02-08T08:07:30.091Z,96795.00
2023-02-08T08:08:29.595Z,96795.00
2023-02-08T08:09:29.560Z,96793.00
2023-02-08T08:10:30.091Z,96793.00
2023-02-08T08:11:29.806Z,96797.00
2023-02-08T08:12:29.545Z,96797.00
2023-02-08T08:13:29.533Z,96799.00
2023-02-08T08:14:29.527Z,96799.00
2023-02-08T08:15:29.511Z,96797.00
2023-02-08T08:16:29.606Z,96801.00
2023-02-08T08:17:30.182Z,96805.00
2023-02-08T08:18:29.500Z,96805.00
2023-02-08T08:19:29.487Z,96806.00
2023-02-08T08:20:29.488Z,96805.00
2023-02-08T08:21:29.591Z,96805.00
2023-02-08T08:22:29.463Z,96805.00
2023-02-08T08:23:29.608Z,96806.00
2023-02-08T08:24:29.439Z,96801.00
2023-02-08T08:25:29.403Z,96805.00
2023-02-08T08:26:29.559Z,96806.00
2023-02-08T08:27:29.411Z,96805.00
2023-02-08T08:28:29.650Z,96803.00
2023-02-08T08:29:29.394Z,96801.00
2023-02-08T08:30:29.410Z,96801.00
2023-02-08T08:31:29.692Z,96801.00
2023-02-08T08:32:29.365Z,96797.00
2023-02-08T08:34:29.356Z,96797.00
2023-02-08T08:35:29.682Z,96795.00
2023-02-08T08:37:29.330Z,96793.00
2023-02-08T08:38:29.315Z,96787.00
2023-02-08T08:39:29.337Z,96789.00
2023-02-08T08:40:29.316Z,96787.00
2023-02-08T08:41:29.578Z,96787.00
2023-02-08T08:42:29.281Z,96789.00
2023-02-08T08:43:29.273Z,96787.00
2023-02-08T08:44:29.275Z,96791.00
2023-02-08T08:45:28.269Z,96787.00
2023-02-08T08:46:29.600Z,96787.00
2023-02-08T08:47:29.234Z,96785.00
2023-02-08T08:48:29.653Z,96787.00
2023-02-08T08:49:29.197Z,96789.00
2023-02-08T08:50:29.556Z,96789.00
2023-02-08T08:51:29.550Z,96791.00
2023-02-08T08:53:29.162Z,96785.00
2023-02-08T08:54:29.151Z,96785.00
2023-02-08T08:56:29.567Z,96785.00
2023-02-08T08:57:29.123Z,96785.00
2023-02-08T08:58:29.144Z,96783.00
2023-02-08T08:59:29.113Z,96783.00
2023-02-08T09:00:29.098Z,96781.00
2023-02-08T09:01:29.594Z,96779.00
2023-02-08T09:02:29.088Z,96775.00
2023-02-08T09:03:29.209Z,96777.00
2023-02-08T09:04:29.065Z,96777.00
2023-02-08T09:05:29.067Z,96773.00
2023-02-08T09:06:29.044Z,96777.00
2023-02-08T09:07:29.039Z,96775.00
2023-02-08T09:08:29.025Z,96777.00
2023-02-08T09:09:29.019Z,96773.00
2023-02-08T09:10:29.057Z,96769.00
2023-02-08T09:11:29.071Z,96769.00
2023-02-08T09:12:28.982Z,96767.00
2023-02-08T09:13:28.977Z,96767.00
2023-02-08T09:14:28.977Z,96767.00
2023-02-08T09:15:28.974Z,96767.00
2023-02-08T09:16:29.042Z,96767.00
2023-02-08T09:17:29.056Z,96765.00
2023-02-08T09:18:28.929Z,96763.00
2023-02-08T09:19:28.933Z,96765.00
2023-02-08T09:20:28.927Z,96763.00
2023-02-08T09:21:28.903Z,96763.00
2023-02-08T09:22:29.058Z,96761.00
2023-02-08T09:23:28.886Z,96761.00
2023-02-08T09:24:29.083Z,96759.00
2023-02-08T09:25:28.866Z,96761.00
2023-02-08T09:26:28.862Z,96759.00
2023-02-08T09:27:28.877Z,96757.00
2023-02-08T09:28:28.843Z,96757.00
2023-02-08T09:29:29.058Z,96755.00
2023-02-08T09:30:28.839Z,96754.00
2023-02-08T09:31:28.947Z,96754.00
2023-02-08T09:32:28.812Z,96754.00
2023-02-08T09:33:28.813Z,96754.00
2023-02-08T09:34:28.798Z,96754.00
2023-02-08T09:35:28.807Z,96750.00
2023-02-08T09:36:28.798Z,96750.00
2023-02-08T09:37:28.773Z,96752.00
2023-02-08T09:38:28.764Z,96757.00
2023-02-08T09:39:29.060Z,96759.00
2023-02-08T09:40:28.785Z,96761.00
2023-02-08T09:41:28.761Z,96761.00
2023-02-08T09:42:36.120Z,96761.00
2023-02-08T09:43:28.720Z,96757.00
2023-02-08T09:44:28.717Z,96755.00
2023-02-08T09:45:28.701Z,96757.00
2023-02-08T09:46:28.724Z,96763.00
2023-02-08T09:47:29.113Z,96763.00
2023-02-08T09:48:28.685Z,96763.00
2023-02-08T09:50:28.658Z,96759.00
2023-02-08T09:51:28.646Z,96757.00
2023-02-08T09:52:29.085Z,96759.00
2023-02-08T09:53:28.634Z,96759.00
2023-02-08T09:54:28.624Z,96757.00
2023-02-08T09:55:28.611Z,96757.00
2023-02-08T09:57:29.120Z,96763.00
2023-02-08T09:58:28.609Z,96761.00
2023-02-08T09:59:28.581Z,96765.00
2023-02-08T10:00:28.599Z,96765.00
2023-02-08T10:02:28.596Z,96759.00
2023-02-08T10:03:28.632Z,96759.00
2023-02-08T10:04:28.555Z,96763.00
2023-02-08T10:05:28.530Z,96757.00
2023-02-08T10:06:28.549Z,96757.00
2023-02-08T10:07:28.623Z,96759.00
2023-02-08T10:08:34.925Z,96759.00
2023-02-08T10:09:28.489Z,96761.00
2023-02-08T10:10:28.477Z,96761.00
2023-02-08T10:11:28.494Z,96755.00
2023-02-08T10:12:28.485Z,96754.00
2023-02-08T10:13:40.720Z,96750.00
2023-02-08T10:14:28.472Z,96746.00
2023-02-08T10:15:28.438Z,96746.00
2023-02-08T10:16:28.478Z,96748.00
2023-02-08T10:17:28.428Z,96746.00
2023-02-08T10:18:28.470Z,96742.00
2023-02-08T10:19:28.398Z,96742.00
2023-02-08T10:20:28.425Z,96740.00
2023-02-08T10:21:28.594Z,96740.00
2023-02-08T10:22:28.371Z,96736.00
2023-02-08T10:23:28.404Z,96738.00
2023-02-08T10:24:28.646Z,96736.00
2023-02-08T10:25:28.352Z,96734.00
2023-02-08T10:26:28.377Z,96734.00
2023-02-08T10:27:28.359Z,96730.00
2023-02-08T10:28:28.464Z,96732.00
2023-02-08T10:29:28.619Z,96734.00
2023-02-08T10:30:28.409Z,96734.00
2023-02-08T10:31:28.349Z,96730.00
2023-02-08T10:32:28.296Z,96728.00
2023-02-08T10:33:28.275Z,96728.00
2023-02-08T10:35:28.258Z,96724.00
2023-02-08T10:36:28.258Z,96720.00
2023-02-08T10:37:28.247Z,96718.00
2023-02-08T10:39:28.227Z,96714.00
2023-02-08T10:40:28.216Z,96710.00
2023-02-08T10:41:28.205Z,96710.00
2023-02-08T10:44:28.234Z,96708.00
2023-02-08T10:45:28.175Z,96708.00
2023-02-08T10:46:28.230Z,96704.00
2023-02-08T10:47:28.146Z,96699.00
2023-02-08T10:48:28.157Z,96699.00
2023-02-08T10:49:28.134Z,96697.00
2023-02-08T10:50:30.207Z,96693.00
2023-02-08T10:51:28.134Z,96693.00
2023-02-08T10:52:28.116Z,96693.00
2023-02-08T10:53:28.312Z,96687.00
2023-02-08T10:54:28.098Z,96687.00
2023-02-08T10:55:28.079Z,96685.00
2023-02-08T10:56:28.108Z,96681.00
2023-02-08T10:58:29.073Z,96673.00
2023-02-08T10:59:28.143Z,96669.00
2023-02-08T11:01:28.161Z,96665.00
2023-02-08T11:02:28.156Z,96663.00
2023-02-08T11:03:28.111Z,96663.00
2023-02-08T11:04:28.149Z,96663.00
2023-02-08T11:05:28.109Z,96657.00
2023-02-08T11:06:28.096Z,96655.00
2023-02-08T11:07:28.076Z,96653.00
2023-02-08T11:08:28.334Z,96647.00
2023-02-08T11:09:28.058Z,96645.00
2023-02-08T11:10:28.044Z,96643.00
2023-02-08T11:11:28.028Z,96642.00
2023-02-08T11:12:28.020Z,96640.00
2023-02-08T11:13:28.007Z,96640.00
2023-02-08T11:14:37.892Z,96642.00
2023-02-08T11:15:28.009Z,96643.00
2023-02-08T11:16:28.038Z,96645.00
2023-02-08T11:17:28.001Z,96647.00
2023-02-08T11:18:28.131Z,96645.00
2023-02-08T11:19:27.965Z,96642.00
2023-02-08T11:20:27.955Z,96640.00
2023-02-08T11:21:27.950Z,96638.00
2023-02-08T11:22:27.932Z,96638.00
2023-02-08T11:23:28.113Z,96634.00
2023-02-08T11:24:27.923Z,96634.00
2023-02-08T11:25:27.905Z,96630.00
2023-02-08T11:26:27.908Z,96632.00
2023-02-08T11:27:28.124Z,96626.00
2023-02-08T11:28:27.917Z,96622.00
2023-02-08T11:29:27.887Z,96618.00
2023-02-08T11:30:27.884Z,96616.00
2023-02-08T11:31:27.874Z,96616.00
2023-02-08T11:32:28.125Z,96616.00
2023-02-08T11:33:28.131Z,96610.00
2023-02-08T11:34:27.872Z,96612.00
2023-02-08T11:35:28.118Z,96606.00
2023-02-08T11:36:27.820Z,96604.00
2023-02-08T11:37:27.807Z,96606.00
2023-02-08T11:38:27.795Z,96606.00
2023-02-08T11:39:27.798Z,96610.00
2023-02-08T11:40:28.135Z,96608.00
2023-02-08T11:41:27.769Z,96612.00
2023-02-08T11:42:27.770Z,96614.00
2023-02-08T11:43:27.748Z,96610.00
2023-02-08T11:44:28.126Z,96610.00
2023-02-08T11:45:27.736Z,96606.00
2023-02-08T11:46:28.152Z,96606.00
2023-02-08T11:47:27.722Z,96604.00
2023-02-08T11:48:27.710Z,96604.00
2023-02-08T11:49:28.130Z,96602.00
2023-02-08T11:50:27.731Z,96598.00
2023-02-08T11:51:27.694Z,96598.00
2023-02-08T11:52:27.669Z,96598.00
2023-02-08T11:53:27.675Z,96596.00
2023-02-08T11:54:27.664Z,96595.00
2023-02-08T11:55:27.651Z,96595.00
2023-02-08T11:56:27.642Z,96591.00
2023-02-08T11:57:27.636Z,96595.00
2023-02-08T11:58:27.627Z,96591.00
2023-02-08T11:59:27.616Z,96585.00
2023-02-08T12:00:27.611Z,96585.00
2023-02-08T12:01:27.595Z,96583.00
2023-02-08T12:02:27.656Z,96579.00
2023-02-08T12:03:27.627Z,96583.00
2023-02-08T12:04:27.632Z,96587.00
2023-02-08T12:05:27.562Z,96587.00
2023-02-08T12:06:27.608Z,96585.00
2023-02-08T12:07:27.545Z,96583.00
2023-02-08T12:08:27.549Z,96583.00
2023-02-08T12:09:27.646Z,96581.00
2023-02-08T12:10:27.520Z,96581.00
2023-02-08T12:11:27.636Z,96585.00
2023-02-08T12:12:27.500Z,96579.00
2023-02-08T12:13:27.526Z,96577.00
2023-02-08T12:14:27.491Z,96575.00
2023-02-08T12:15:27.517Z,96573.00
2023-02-08T12:16:27.734Z,96567.00
2023-02-08T12:17:27.458Z,96561.00
2023-02-08T12:18:27.640Z,96555.00
2023-02-08T12:19:27.455Z,96553.00
2023-02-08T12:20:27.440Z,96549.00
2023-02-08T12:21:27.646Z,96549.00
2023-02-08T12:22:27.449Z,96548.00
2023-02-08T12:23:27.405Z,96549.00
2023-02-08T12:24:27.395Z,96548.00
2023-02-08T12:25:27.390Z,96546.00
2023-02-08T12:26:27.418Z,96544.00
2023-02-08T12:27:27.595Z,96546.00
2023-02-08T12:28:27.362Z,96548.00
2023-02-08T12:29:33.179Z,96548.00
2023-02-08T12:30:27.340Z,96544.00
2023-02-08T12:31:27.509Z,96546.00
2023-02-08T12:32:27.325Z,96544.00
2023-02-08T12:33:27.313Z,96546.00
2023-02-08T12:34:27.646Z,96540.00
2023-02-08T12:35:40.210Z,96540.00
2023-02-08T12:36:27.302Z,96538.00
2023-02-08T12:37:27.280Z,96534.00
2023-02-08T12:38:27.291Z,96532.00
2023-02-08T12:39:27.648Z,96530.00
2023-02-08T12:40:27.249Z,96524.00
2023-02-08T12:41:27.246Z,96522.00
2023-02-08T12:42:27.246Z,96522.00
2023-02-08T12:43:27.235Z,96518.00
2023-02-08T12:44:27.218Z,96518.00
2023-02-08T12:45:27.654Z,96514.00
2023-02-08T12:46:27.284Z,96512.00
2023-02-08T12:47:27.198Z,96508.00
2023-02-08T12:48:27.182Z,96508.00
2023-02-08T12:49:27.181Z,96500.00
2023-02-08T12:50:27.646Z,96500.00
2023-02-08T12:51:27.165Z,96502.00